Terminal Aerodrome Forecast
Issued by NWS Grand Junction, CO

Home | Current Version | Previous Version | Text Only | Print | Product List | Glossary On
Versions: 1 2 3 4 5 6 7 8 9 10 11 12 13 14 15 16 17 18 19 20 21 22 23 24 25
000
FTUS45 KGJT 232331
TAFGJT
TAF
KGJT 232331Z 2400/2424 29008KT P6SM FEW080 BKN130
     FM240300 08006KT P6SM FEW120 SCT150
     FM241100 11007KT P6SM FEW250
     FM241600 14007KT P6SM FEW250
     FM241900 28006KT P6SM FEW250=

USA.gov is the U.S. government's official web portal to all federal, state and local government web resources and services.